الصفحة الرئيسية
METAR-TAF:

METAR-TAF

مطار :

شيان, جمهورية الصين الشعبية

مطار شيان شيانيانغ الدولي

دائرة عرض: 34-26N, خط طول: 108-45E, ارتفاع: 479 متر

مراقبة الطقس الحالي

تاريخ ووقت الإصدار 1ساعة و 9 دقيقة قبل الساعة 06:00UTC
ريح 2 عقدةمن اتجاهات متغيرة
درجة الحرارة 9°درجة مئوية
الرطوبة 40%
ضغط 1022 hPa
الرؤية: 4000 متر
العجاج

METAR: ZLXY 190600Z VRB01MPS 4000 HZ NSC 09/M04 Q1022 NOSIG

زمن: 15:09 (07:09 UTC)

توقعات

تاريخ ووقت الإصدار 3ساعات و 48 دقيقة قبل الساعة 03:21UTC
التوقعات صالحة من19 الساعة 06 UTC إلى 20 الساعة 06 UTC
ريح 6 عقدة من الشرق/الشمال الشرقي
الرؤية: 3000 متر
العجاج
أصبح
من 19 الساعة 11 UTC إلى 19 الساعة 12 UTC
الرؤية: 2000 متر
غشاء

TAF: ZLXY 190321Z 1906/2006 06003MPS 3000 HZ NSC TX08/1907Z TNM03/23Z BECMG 1911/1912 2000 BR

أرصاد الطقس والتوقعات من أكثر من 4000 مطار (تقارير الطقس للمطار METAR والتنبؤ بالطقس بالمطارTAF).

المحطات المتاحة هي النقط الصفراء والحمراء على الخريطة.

حرك المؤشر فوق النقطة لمعرفة اسم المحطة.

ثم انقر لمعرفة أرصاد وتوقعات الطقس.

لتغيير الخارطة: اضغط على الأزرار الخضراء مع رمز الصليب الأسود للتكبير. على الزر الأخضر مع شرطة للتصغير، أو على الأسهم الخضراء للخرائط المجاورة.


METAR-TAF: